2MARL EGJJ-EGJB

Flight info

Callsign 2MARL
Flight time N/A
Altitude 4000
Route GUR
Aircraft C750/M-SBDE3FGHRWXY/S

Departure

Time N/A
Airport Jersey Airport (EGJJ)

Arrival

Time 2026-04-22 05:02
Airport Guernsey Airport (EGJB)
Time Latitude Longitude Altitude Speed Heading
2026-04-22 04:58 49.42739 -2.86633 3257 ft 63 kts 89°
2026-04-22 04:58 49.42768 -2.85773 1316 ft 99 kts 86°
2026-04-22 04:58 49.42731 -2.86888 3560 ft 63 kts 88°
2026-04-22 04:59 49.42743 -2.86067 2178 ft 150 kts 90°
2026-04-22 04:59 49.42766 -2.83895 1475 ft 233 kts 88°
2026-04-22 04:59 49.42900 -2.81435 1505 ft 228 kts 83°
2026-04-22 04:59 49.43153 -2.79068 1449 ft 223 kts 79°
2026-04-22 05:00 49.43308 -2.76717 1407 ft 220 kts 87°
2026-04-22 05:00 49.43352 -2.74368 1359 ft 217 kts 88°
2026-04-22 05:00 49.43381 -2.72122 1628 ft 200 kts 88°
2026-04-22 05:00 49.43396 -2.70051 1479 ft 186 kts 89°
2026-04-22 05:01 49.43393 -2.68179 1178 ft 155 kts 89°
2026-04-22 05:01 49.43376 -2.66740 1023 ft 118 kts 89°
2026-04-22 05:01 49.43369 -2.65623 885 ft 100 kts 87°
2026-04-22 05:01 49.43394 -2.64566 737 ft 98 kts 89°
2026-04-22 05:02 49.43412 -2.63522 634 ft 98 kts 88°
2026-04-22 05:02 49.43444 -2.62471 498 ft 100 kts 86°
2026-04-22 05:02 49.43465 -2.61412 373 ft 96 kts 86°
2026-04-22 05:02 49.43485 -2.60585 328 ft 49 kts 86°
2026-04-22 05:03 49.43497 -2.60275 333 ft 21 kts 88°
2026-04-22 05:03 49.43500 -2.60078 336 ft 19 kts 88°
2026-04-22 05:03 49.43504 -2.59848 346 ft 25 kts 87°
2026-04-22 05:03 49.43512 -2.59541 347 ft 33 kts 88°
2026-04-22 05:04 49.43519 -2.59249 344 ft 12 kts 95°
2026-04-22 05:04 49.43462 -2.59203 342 ft 13 kts 174°
2026-04-22 05:04 49.43359 -2.59100 339 ft 11 kts 135°
2026-04-22 05:04 49.43349 -2.59111 341 ft 0 kts 268°